sensor_id;sensor_type;location;lat;lon;timestamp;pressure;altitude;pressure_sealevel;temperature
15845;BMP180;50807;52.436;13.346;2023-12-20T00:00:25;100445.00;;;11.10
15845;BMP180;50807;52.436;13.346;2023-12-20T00:00:56;100457.00;;;11.10
15845;BMP180;50807;52.436;13.346;2023-12-20T00:01:27;100451.00;;;11.20
15845;BMP180;50807;52.436;13.346;2023-12-20T00:01:58;100450.00;;;11.20
15845;BMP180;50807;52.436;13.346;2023-12-20T00:02:29;100449.00;;;11.20
15845;BMP180;50807;52.436;13.346;2023-12-20T00:03:00;100451.00;;;11.20
15845;BMP180;50807;52.436;13.346;2023-12-20T00:03:31;100453.00;;;11.20
15845;BMP180;50807;52.436;13.346;2023-12-20T00:04:02;100451.00;;;11.20
15845;BMP180;50807;52.436;13.346;2023-12-20T00:04:34;100447.00;;;11.10
15845;BMP180;50807;52.436;13.346;2023-12-20T00:05:06;100457.00;;;11.20
15845;BMP180;50807;52.436;13.346;2023-12-20T00:05:37;100451.00;;;11.20
15845;BMP180;50807;52.436;13.346;2023-12-20T00:06:11;100444.00;;;11.20
15845;BMP180;50807;52.436;13.346;2023-12-20T00:06:43;100457.00;;;11.20
15845;BMP180;50807;52.436;13.346;2023-12-20T00:07:14;100447.00;;;11.20
15845;BMP180;50807;52.436;13.346;2023-12-20T00:07:45;100457.00;;;11.20
15845;BMP180;50807;52.436;13.346;2023-12-20T00:08:16;100446.00;;;11.20
15845;BMP180;50807;52.436;13.346;2023-12-20T00:08:47;100450.00;;;11.20
15845;BMP180;50807;52.436;13.346;2023-12-20T00:09:18;100449.00;;;11.20
15845;BMP180;50807;52.436;13.346;2023-12-20T00:09:50;100451.00;;;11.20
15845;BMP180;50807;52.436;13.346;2023-12-20T00:10:21;100444.00;;;11.20
15845;BMP180;50807;52.436;13.346;2023-12-20T00:10:52;100443.00;;;11.10
15845;BMP180;50807;52.436;13.346;2023-12-20T00:11:23;100455.00;;;11.10
15845;BMP180;50807;52.436;13.346;2023-12-20T00:11:54;100448.00;;;11.10
15845;BMP180;50807;52.436;13.346;2023-12-20T00:12:25;100443.00;;;11.10
15845;BMP180;50807;52.436;13.346;2023-12-20T00:12:56;100454.00;;;11.10
15845;BMP180;50807;52.436;13.346;2023-12-20T00:13:27;100450.00;;;11.20
15845;BMP180;50807;52.436;13.346;2023-12-20T00:13:58;100440.00;;;11.20
15845;BMP180;50807;52.436;13.346;2023-12-20T00:14:28;100448.00;;;11.20
15845;BMP180;50807;52.436;13.346;2023-12-20T00:15:00;100438.00;;;11.20
15845;BMP180;50807;52.436;13.346;2023-12-20T00:15:31;100440.00;;;11.20
15845;BMP180;50807;52.436;13.346;2023-12-20T00:16:02;100439.00;;;11.20
15845;BMP180;50807;52.436;13.346;2023-12-20T00:16:33;100443.00;;;11.20
15845;BMP180;50807;52.436;13.346;2023-12-20T00:17:04;100444.00;;;11.20
15845;BMP180;50807;52.436;13.346;2023-12-20T00:17:35;100441.00;;;11.20
15845;BMP180;50807;52.436;13.346;2023-12-20T00:18:06;100444.00;;;11.20
15845;BMP180;50807;52.436;13.346;2023-12-20T00:18:37;100430.00;;;11.20
15845;BMP180;50807;52.436;13.346;2023-12-20T00:19:09;100434.00;;;11.20
15845;BMP180;50807;52.436;13.346;2023-12-20T00:19:40;100434.00;;;11.20
15845;BMP180;50807;52.436;13.346;2023-12-20T00:20:11;100434.00;;;11.10
15845;BMP180;50807;52.436;13.346;2023-12-20T00:20:42;100428.00;;;11.20
15845;BMP180;50807;52.436;13.346;2023-12-20T00:21:12;100426.00;;;11.20
15845;BMP180;50807;52.436;13.346;2023-12-20T00:21:44;100435.00;;;11.10
15845;BMP180;50807;52.436;13.346;2023-12-20T00:22:15;100445.00;;;11.10
15845;BMP180;50807;52.436;13.346;2023-12-20T00:22:46;100434.00;;;11.10
15845;BMP180;50807;52.436;13.346;2023-12-20T00:23:16;100436.00;;;11.10
15845;BMP180;50807;52.436;13.346;2023-12-20T00:23:48;100434.00;;;11.10
15845;BMP180;50807;52.436;13.346;2023-12-20T00:24:19;100435.00;;;11.10
15845;BMP180;50807;52.436;13.346;2023-12-20T00:24:52;100439.00;;;11.10
15845;BMP180;50807;52.436;13.346;2023-12-20T00:25:24;100437.00;;;11.10
15845;BMP180;50807;52.436;13.346;2023-12-20T00:25:55;100437.00;;;11.10
15845;BMP180;50807;52.436;13.346;2023-12-20T00:26:26;100436.00;;;11.10
15845;BMP180;50807;52.436;13.346;2023-12-20T00:26:58;100437.00;;;11.10
15845;BMP180;50807;52.436;13.346;2023-12-20T00:27:30;100441.00;;;11.10
15845;BMP180;50807;52.436;13.346;2023-12-20T00:28:01;100425.00;;;11.10
15845;BMP180;50807;52.436;13.346;2023-12-20T00:28:32;100430.00;;;11.10
15845;BMP180;50807;52.436;13.346;2023-12-20T00:29:03;100439.00;;;11.10
15845;BMP180;50807;52.436;13.346;2023-12-20T00:29:35;100439.00;;;11.10
15845;BMP180;50807;52.436;13.346;2023-12-20T00:30:07;100429.00;;;11.10
15845;BMP180;50807;52.436;13.346;2023-12-20T00:30:38;100445.00;;;11.10
15845;BMP180;50807;52.436;13.346;2023-12-20T00:31:10;100428.00;;;11.10
15845;BMP180;50807;52.436;13.346;2023-12-20T00:31:40;100431.00;;;11.10
15845;BMP180;50807;52.436;13.346;2023-12-20T00:32:11;100423.00;;;11.10
15845;BMP180;50807;52.436;13.346;2023-12-20T00:32:42;100429.00;;;11.10
15845;BMP180;50807;52.436;13.346;2023-12-20T00:33:16;100434.00;;;11.10
15845;BMP180;50807;52.436;13.346;2023-12-20T00:33:47;100431.00;;;11.10
15845;BMP180;50807;52.436;13.346;2023-12-20T00:34:18;100428.00;;;11.10
15845;BMP180;50807;52.436;13.346;2023-12-20T00:34:49;100422.00;;;11.10
15845;BMP180;50807;52.436;13.346;2023-12-20T00:35:20;100427.00;;;11.10
15845;BMP180;50807;52.436;13.346;2023-12-20T00:35:51;100419.00;;;11.10
15845;BMP180;50807;52.436;13.346;2023-12-20T00:36:22;100423.00;;;11.10
15845;BMP180;50807;52.436;13.346;2023-12-20T00:36:53;100425.00;;;11.10
15845;BMP180;50807;52.436;13.346;2023-12-20T00:37:25;100414.00;;;11.10
15845;BMP180;50807;52.436;13.346;2023-12-20T00:37:56;100436.00;;;11.10
15845;BMP180;50807;52.436;13.346;2023-12-20T00:38:27;100418.00;;;11.10
15845;BMP180;50807;52.436;13.346;2023-12-20T00:38:58;100421.00;;;11.00
15845;BMP180;50807;52.436;13.346;2023-12-20T00:39:29;100417.00;;;11.10
15845;BMP180;50807;52.436;13.346;2023-12-20T00:40:03;100413.00;;;11.00
15845;BMP180;50807;52.436;13.346;2023-12-20T00:40:34;100428.00;;;11.10
15845;BMP180;50807;52.436;13.346;2023-12-20T00:41:04;100426.00;;;11.10
15845;BMP180;50807;52.436;13.346;2023-12-20T00:41:35;100420.00;;;11.10
15845;BMP180;50807;52.436;13.346;2023-12-20T00:42:07;100423.00;;;11.00
15845;BMP180;50807;52.436;13.346;2023-12-20T00:42:38;100415.00;;;11.10
15845;BMP180;50807;52.436;13.346;2023-12-20T00:43:09;100421.00;;;11.10
15845;BMP180;50807;52.436;13.346;2023-12-20T00:43:40;100419.00;;;11.10
15845;BMP180;50807;52.436;13.346;2023-12-20T00:44:11;100408.00;;;11.10
15845;BMP180;50807;52.436;13.346;2023-12-20T00:44:42;100433.00;;;11.10
15845;BMP180;50807;52.436;13.346;2023-12-20T00:45:13;100434.00;;;11.10
15845;BMP180;50807;52.436;13.346;2023-12-20T00:45:45;100420.00;;;11.10
15845;BMP180;50807;52.436;13.346;2023-12-20T00:46:16;100420.00;;;11.10
15845;BMP180;50807;52.436;13.346;2023-12-20T00:46:47;100431.00;;;11.10
15845;BMP180;50807;52.436;13.346;2023-12-20T00:47:18;100430.00;;;11.10
15845;BMP180;50807;52.436;13.346;2023-12-20T00:47:48;100418.00;;;11.10
15845;BMP180;50807;52.436;13.346;2023-12-20T00:48:20;100428.00;;;11.10
15845;BMP180;50807;52.436;13.346;2023-12-20T00:48:51;100424.00;;;11.10
15845;BMP180;50807;52.436;13.346;2023-12-20T00:49:22;100419.00;;;11.10
15845;BMP180;50807;52.436;13.346;2023-12-20T00:49:52;100417.00;;;11.10
15845;BMP180;50807;52.436;13.346;2023-12-20T00:50:23;100419.00;;;11.10
15845;BMP180;50807;52.436;13.346;2023-12-20T00:50:55;100423.00;;;11.10
15845;BMP180;50807;52.436;13.346;2023-12-20T00:51:26;100418.00;;;11.10
15845;BMP180;50807;52.436;13.346;2023-12-20T00:51:56;100420.00;;;11.10
15845;BMP180;50807;52.436;13.346;2023-12-20T00:52:28;100439.00;;;11.10
15845;BMP180;50807;52.436;13.346;2023-12-20T00:52:59;100421.00;;;11.10
15845;BMP180;50807;52.436;13.346;2023-12-20T00:53:30;100417.00;;;11.10
15845;BMP180;50807;52.436;13.346;2023-12-20T00:54:00;100413.00;;;11.10
15845;BMP180;50807;52.436;13.346;2023-12-20T00:54:32;100419.00;;;11.10
15845;BMP180;50807;52.436;13.346;2023-12-20T00:55:06;100410.00;;;11.10
15845;BMP180;50807;52.436;13.346;2023-12-20T00:55:36;100414.00;;;11.10
15845;BMP180;50807;52.436;13.346;2023-12-20T00:56:07;100414.00;;;11.10
15845;BMP180;50807;52.436;13.346;2023-12-20T00:56:39;100419.00;;;11.10
15845;BMP180;50807;52.436;13.346;2023-12-20T00:57:10;100418.00;;;11.10
15845;BMP180;50807;52.436;13.346;2023-12-20T00:57:40;100421.00;;;11.10
15845;BMP180;50807;52.436;13.346;2023-12-20T00:58:11;100427.00;;;11.10
15845;BMP180;50807;52.436;13.346;2023-12-20T00:58:43;100419.00;;;11.10
15845;BMP180;50807;52.436;13.346;2023-12-20T00:59:13;100415.00;;;11.10
15845;BMP180;50807;52.436;13.346;2023-12-20T00:59:45;100424.00;;;11.10
15845;BMP180;50807;52.436;13.346;2023-12-20T01:00:17;100418.00;;;11.20
15845;BMP180;50807;52.436;13.346;2023-12-20T01:00:48;100416.00;;;11.20
15845;BMP180;50807;52.436;13.346;2023-12-20T01:01:19;100424.00;;;11.10
15845;BMP180;50807;52.436;13.346;2023-12-20T01:01:50;100409.00;;;11.10
15845;BMP180;50807;52.436;13.346;2023-12-20T01:02:21;100419.00;;;11.20
15845;BMP180;50807;52.436;13.346;2023-12-20T01:02:53;100419.00;;;11.20
15845;BMP180;50807;52.436;13.346;2023-12-20T01:03:24;100421.00;;;11.20
15845;BMP180;50807;52.436;13.346;2023-12-20T01:03:54;100421.00;;;11.20
15845;BMP180;50807;52.436;13.346;2023-12-20T01:04:26;100422.00;;;11.20
15845;BMP180;50807;52.436;13.346;2023-12-20T01:04:57;100428.00;;;11.20
15845;BMP180;50807;52.436;13.346;2023-12-20T01:05:28;100423.00;;;11.20
15845;BMP180;50807;52.436;13.346;2023-12-20T01:05:59;100416.00;;;11.20
15845;BMP180;50807;52.436;13.346;2023-12-20T01:06:30;100421.00;;;11.20
15845;BMP180;50807;52.436;13.346;2023-12-20T01:07:01;100409.00;;;11.20
15845;BMP180;50807;52.436;13.346;2023-12-20T01:07:32;100424.00;;;11.20
15845;BMP180;50807;52.436;13.346;2023-12-20T01:08:04;100415.00;;;11.20
15845;BMP180;50807;52.436;13.346;2023-12-20T01:08:37;100419.00;;;11.20
15845;BMP180;50807;52.436;13.346;2023-12-20T01:09:07;100421.00;;;11.20
15845;BMP180;50807;52.436;13.346;2023-12-20T01:09:39;100426.00;;;11.20
15845;BMP180;50807;52.436;13.346;2023-12-20T01:10:11;100421.00;;;11.20
15845;BMP180;50807;52.436;13.346;2023-12-20T01:10:42;100430.00;;;11.20
15845;BMP180;50807;52.436;13.346;2023-12-20T01:11:13;100427.00;;;11.20
15845;BMP180;50807;52.436;13.346;2023-12-20T01:11:44;100423.00;;;11.20
15845;BMP180;50807;52.436;13.346;2023-12-20T01:12:16;100433.00;;;11.20
15845;BMP180;50807;52.436;13.346;2023-12-20T01:12:47;100432.00;;;11.20
15845;BMP180;50807;52.436;13.346;2023-12-20T01:13:18;100428.00;;;11.30
15845;BMP180;50807;52.436;13.346;2023-12-20T01:13:49;100428.00;;;11.30
15845;BMP180;50807;52.436;13.346;2023-12-20T01:14:20;100426.00;;;11.20
15845;BMP180;50807;52.436;13.346;2023-12-20T01:14:51;100420.00;;;11.20
15845;BMP180;50807;52.436;13.346;2023-12-20T01:15:22;100422.00;;;11.20
15845;BMP180;50807;52.436;13.346;2023-12-20T01:15:53;100417.00;;;11.20
15845;BMP180;50807;52.436;13.346;2023-12-20T01:16:24;100418.00;;;11.30
15845;BMP180;50807;52.436;13.346;2023-12-20T01:16:55;100418.00;;;11.20
15845;BMP180;50807;52.436;13.346;2023-12-20T01:17:26;100419.00;;;11.30
15845;BMP180;50807;52.436;13.346;2023-12-20T01:17:57;100418.00;;;11.30
15845;BMP180;50807;52.436;13.346;2023-12-20T01:18:30;100416.00;;;11.30
15845;BMP180;50807;52.436;13.346;2023-12-20T01:19:00;100418.00;;;11.30
15845;BMP180;50807;52.436;13.346;2023-12-20T01:19:31;100425.00;;;11.30
15845;BMP180;50807;52.436;13.346;2023-12-20T01:20:04;100420.00;;;11.30
15845;BMP180;50807;52.436;13.346;2023-12-20T01:20:35;100414.00;;;11.30
15845;BMP180;50807;52.436;13.346;2023-12-20T01:21:05;100419.00;;;11.30
15845;BMP180;50807;52.436;13.346;2023-12-20T01:21:36;100423.00;;;11.30
15845;BMP180;50807;52.436;13.346;2023-12-20T01:22:08;100419.00;;;11.30
15845;BMP180;50807;52.436;13.346;2023-12-20T01:22:39;100421.00;;;11.30
15845;BMP180;50807;52.436;13.346;2023-12-20T01:23:10;100416.00;;;11.30
15845;BMP180;50807;52.436;13.346;2023-12-20T01:23:41;100417.00;;;11.30
15845;BMP180;50807;52.436;13.346;2023-12-20T01:24:13;100426.00;;;11.30
15845;BMP180;50807;52.436;13.346;2023-12-20T01:24:44;100411.00;;;11.30
15845;BMP180;50807;52.436;13.346;2023-12-20T01:25:16;100422.00;;;11.30
15845;BMP180;50807;52.436;13.346;2023-12-20T01:25:48;100414.00;;;11.30
15845;BMP180;50807;52.436;13.346;2023-12-20T01:26:20;100422.00;;;11.30
15845;BMP180;50807;52.436;13.346;2023-12-20T01:26:51;100425.00;;;11.30
15845;BMP180;50807;52.436;13.346;2023-12-20T01:27:21;100418.00;;;11.30
15845;BMP180;50807;52.436;13.346;2023-12-20T01:27:52;100422.00;;;11.30
15845;BMP180;50807;52.436;13.346;2023-12-20T01:28:24;100430.00;;;11.30
15845;BMP180;50807;52.436;13.346;2023-12-20T01:28:54;100419.00;;;11.30
15845;BMP180;50807;52.436;13.346;2023-12-20T01:29:25;100419.00;;;11.30
15845;BMP180;50807;52.436;13.346;2023-12-20T01:29:56;100417.00;;;11.30
15845;BMP180;50807;52.436;13.346;2023-12-20T01:30:28;100419.00;;;11.40
15845;BMP180;50807;52.436;13.346;2023-12-20T01:30:58;100419.00;;;11.30
15845;BMP180;50807;52.436;13.346;2023-12-20T01:31:29;100426.00;;;11.40
15845;BMP180;50807;52.436;13.346;2023-12-20T01:32:00;100428.00;;;11.40
15845;BMP180;50807;52.436;13.346;2023-12-20T01:32:31;100424.00;;;11.40
15845;BMP180;50807;52.436;13.346;2023-12-20T01:33:02;100415.00;;;11.40
15845;BMP180;50807;52.436;13.346;2023-12-20T01:33:33;100427.00;;;11.40
15845;BMP180;50807;52.436;13.346;2023-12-20T01:34:04;100424.00;;;11.40
15845;BMP180;50807;52.436;13.346;2023-12-20T01:34:35;100419.00;;;11.40
15845;BMP180;50807;52.436;13.346;2023-12-20T01:35:07;100426.00;;;11.40
15845;BMP180;50807;52.436;13.346;2023-12-20T01:35:38;100420.00;;;11.40
15845;BMP180;50807;52.436;13.346;2023-12-20T01:36:08;100426.00;;;11.40
15845;BMP180;50807;52.436;13.346;2023-12-20T01:36:42;100420.00;;;11.40
15845;BMP180;50807;52.436;13.346;2023-12-20T01:37:13;100420.00;;;11.40
15845;BMP180;50807;52.436;13.346;2023-12-20T01:37:44;100423.00;;;11.50
15845;BMP180;50807;52.436;13.346;2023-12-20T01:38:15;100430.00;;;11.40
15845;BMP180;50807;52.436;13.346;2023-12-20T01:38:49;100426.00;;;11.40
15845;BMP180;50807;52.436;13.346;2023-12-20T01:39:20;100428.00;;;11.40
15845;BMP180;50807;52.436;13.346;2023-12-20T01:39:50;100426.00;;;11.40
15845;BMP180;50807;52.436;13.346;2023-12-20T01:40:23;100428.00;;;11.40
15845;BMP180;50807;52.436;13.346;2023-12-20T01:40:55;100423.00;;;11.50
15845;BMP180;50807;52.436;13.346;2023-12-20T01:41:26;100428.00;;;11.40
15845;BMP180;50807;52.436;13.346;2023-12-20T01:41:56;100421.00;;;11.50
15845;BMP180;50807;52.436;13.346;2023-12-20T01:42:27;100416.00;;;11.50
15845;BMP180;50807;52.436;13.346;2023-12-20T01:43:00;100418.00;;;11.50
15845;BMP180;50807;52.436;13.346;2023-12-20T01:43:31;100418.00;;;11.50
15845;BMP180;50807;52.436;13.346;2023-12-20T01:44:02;100414.00;;;11.50
15845;BMP180;50807;52.436;13.346;2023-12-20T01:44:34;100422.00;;;11.50
15845;BMP180;50807;52.436;13.346;2023-12-20T01:45:06;100423.00;;;11.50
15845;BMP180;50807;52.436;13.346;2023-12-20T01:45:37;100416.00;;;11.50
15845;BMP180;50807;52.436;13.346;2023-12-20T01:46:08;100418.00;;;11.50
15845;BMP180;50807;52.436;13.346;2023-12-20T01:46:38;100408.00;;;11.50
15845;BMP180;50807;52.436;13.346;2023-12-20T01:47:12;100409.00;;;11.50
15845;BMP180;50807;52.436;13.346;2023-12-20T01:47:42;100410.00;;;11.50
15845;BMP180;50807;52.436;13.346;2023-12-20T01:48:15;100409.00;;;11.50
15845;BMP180;50807;52.436;13.346;2023-12-20T01:48:47;100408.00;;;11.50
15845;BMP180;50807;52.436;13.346;2023-12-20T01:49:19;100408.00;;;11.50
15845;BMP180;50807;52.436;13.346;2023-12-20T01:49:50;100412.00;;;11.50
15845;BMP180;50807;52.436;13.346;2023-12-20T01:50:21;100411.00;;;11.50
15845;BMP180;50807;52.436;13.346;2023-12-20T01:50:53;100398.00;;;11.50
15845;BMP180;50807;52.436;13.346;2023-12-20T01:51:26;100415.00;;;11.50
15845;BMP180;50807;52.436;13.346;2023-12-20T01:51:57;100412.00;;;11.50
15845;BMP180;50807;52.436;13.346;2023-12-20T01:52:28;100413.00;;;11.50
15845;BMP180;50807;52.436;13.346;2023-12-20T01:53:00;100414.00;;;11.50
15845;BMP180;50807;52.436;13.346;2023-12-20T01:53:31;100417.00;;;11.50
15845;BMP180;50807;52.436;13.346;2023-12-20T01:54:04;100411.00;;;11.50
15845;BMP180;50807;52.436;13.346;2023-12-20T01:54:35;100415.00;;;11.50
15845;BMP180;50807;52.436;13.346;2023-12-20T01:55:07;100419.00;;;11.50
15845;BMP180;50807;52.436;13.346;2023-12-20T01:55:45;100409.00;;;11.50
15845;BMP180;50807;52.436;13.346;2023-12-20T01:56:17;100413.00;;;11.50
15845;BMP180;50807;52.436;13.346;2023-12-20T01:56:50;100406.00;;;11.50
15845;BMP180;50807;52.436;13.346;2023-12-20T01:57:21;100408.00;;;11.50
15845;BMP180;50807;52.436;13.346;2023-12-20T01:57:52;100412.00;;;11.50
15845;BMP180;50807;52.436;13.346;2023-12-20T01:58:23;100398.00;;;11.50
15845;BMP180;50807;52.436;13.346;2023-12-20T01:58:56;100402.00;;;11.50
15845;BMP180;50807;52.436;13.346;2023-12-20T01:59:29;100409.00;;;11.50
15845;BMP180;50807;52.436;13.346;2023-12-20T02:00:00;100399.00;;;11.50
15845;BMP180;50807;52.436;13.346;2023-12-20T02:00:31;100407.00;;;11.50
15845;BMP180;50807;52.436;13.346;2023-12-20T02:01:02;100404.00;;;11.50
15845;BMP180;50807;52.436;13.346;2023-12-20T02:01:34;100407.00;;;11.50
15845;BMP180;50807;52.436;13.346;2023-12-20T02:02:05;100406.00;;;11.50
15845;BMP180;50807;52.436;13.346;2023-12-20T02:02:38;100404.00;;;11.50
15845;BMP180;50807;52.436;13.346;2023-12-20T02:03:09;100407.00;;;11.50
15845;BMP180;50807;52.436;13.346;2023-12-20T02:03:42;100404.00;;;11.50
15845;BMP180;50807;52.436;13.346;2023-12-20T02:04:13;100408.00;;;11.50
15845;BMP180;50807;52.436;13.346;2023-12-20T02:04:44;100401.00;;;11.50
15845;BMP180;50807;52.436;13.346;2023-12-20T02:05:15;100402.00;;;11.50
15845;BMP180;50807;52.436;13.346;2023-12-20T02:05:48;100401.00;;;11.60
15845;BMP180;50807;52.436;13.346;2023-12-20T02:06:21;100397.00;;;11.50
15845;BMP180;50807;52.436;13.346;2023-12-20T02:06:53;100385.00;;;11.50
15845;BMP180;50807;52.436;13.346;2023-12-20T02:07:24;100403.00;;;11.60
15845;BMP180;50807;52.436;13.346;2023-12-20T02:07:56;100392.00;;;11.60
15845;BMP180;50807;52.436;13.346;2023-12-20T02:08:27;100387.00;;;11.60
15845;BMP180;50807;52.436;13.346;2023-12-20T02:08:58;100397.00;;;11.50
15845;BMP180;50807;52.436;13.346;2023-12-20T02:09:29;100390.00;;;11.60
15845;BMP180;50807;52.436;13.346;2023-12-20T02:10:02;100388.00;;;11.60
15845;BMP180;50807;52.436;13.346;2023-12-20T02:10:32;100378.00;;;11.60
15845;BMP180;50807;52.436;13.346;2023-12-20T02:11:05;100380.00;;;11.60
15845;BMP180;50807;52.436;13.346;2023-12-20T02:11:37;100383.00;;;11.60
15845;BMP180;50807;52.436;13.346;2023-12-20T02:12:08;100386.00;;;11.60
15845;BMP180;50807;52.436;13.346;2023-12-20T02:12:40;100382.00;;;11.60
15845;BMP180;50807;52.436;13.346;2023-12-20T02:13:10;100374.00;;;11.60
15845;BMP180;50807;52.436;13.346;2023-12-20T02:13:42;100383.00;;;11.60
15845;BMP180;50807;52.436;13.346;2023-12-20T02:14:13;100376.00;;;11.60
15845;BMP180;50807;52.436;13.346;2023-12-20T02:14:44;100390.00;;;11.60
15845;BMP180;50807;52.436;13.346;2023-12-20T02:15:15;100388.00;;;11.60
15845;BMP180;50807;52.436;13.346;2023-12-20T02:15:46;100381.00;;;11.60
15845;BMP180;50807;52.436;13.346;2023-12-20T02:16:17;100393.00;;;11.60
15845;BMP180;50807;52.436;13.346;2023-12-20T02:16:48;100384.00;;;11.60
15845;BMP180;50807;52.436;13.346;2023-12-20T02:17:19;100393.00;;;11.60
15845;BMP180;50807;52.436;13.346;2023-12-20T02:17:51;100389.00;;;11.60
15845;BMP180;50807;52.436;13.346;2023-12-20T02:18:22;100391.00;;;11.60
15845;BMP180;50807;52.436;13.346;2023-12-20T02:18:53;100386.00;;;11.60
15845;BMP180;50807;52.436;13.346;2023-12-20T02:19:24;100388.00;;;11.60
15845;BMP180;50807;52.436;13.346;2023-12-20T02:19:55;100381.00;;;11.60
15845;BMP180;50807;52.436;13.346;2023-12-20T02:20:26;100395.00;;;11.60
15845;BMP180;50807;52.436;13.346;2023-12-20T02:20:57;100395.00;;;11.60
15845;BMP180;50807;52.436;13.346;2023-12-20T02:21:33;100391.00;;;11.50
15845;BMP180;50807;52.436;13.346;2023-12-20T02:22:09;100393.00;;;11.50
15845;BMP180;50807;52.436;13.346;2023-12-20T02:22:40;100400.00;;;11.50
15845;BMP180;50807;52.436;13.346;2023-12-20T02:23:11;100399.00;;;11.50
15845;BMP180;50807;52.436;13.346;2023-12-20T02:23:42;100404.00;;;11.50
15845;BMP180;50807;52.436;13.346;2023-12-20T02:24:12;100398.00;;;11.50
15845;BMP180;50807;52.436;13.346;2023-12-20T02:24:44;100398.00;;;11.50
15845;BMP180;50807;52.436;13.346;2023-12-20T02:25:15;100393.00;;;11.50
15845;BMP180;50807;52.436;13.346;2023-12-20T02:25:46;100391.00;;;11.50
15845;BMP180;50807;52.436;13.346;2023-12-20T02:26:16;100394.00;;;11.50
15845;BMP180;50807;52.436;13.346;2023-12-20T02:26:49;100397.00;;;11.50
15845;BMP180;50807;52.436;13.346;2023-12-20T02:27:22;100389.00;;;11.50
15845;BMP180;50807;52.436;13.346;2023-12-20T02:27:53;100395.00;;;11.50
15845;BMP180;50807;52.436;13.346;2023-12-20T02:28:24;100394.00;;;11.50
15845;BMP180;50807;52.436;13.346;2023-12-20T02:28:55;100396.00;;;11.50
15845;BMP180;50807;52.436;13.346;2023-12-20T02:29:27;100396.00;;;11.60
15845;BMP180;50807;52.436;13.346;2023-12-20T02:29:58;100396.00;;;11.60
15845;BMP180;50807;52.436;13.346;2023-12-20T02:30:28;100388.00;;;11.60
15845;BMP180;50807;52.436;13.346;2023-12-20T02:30:59;100393.00;;;11.60
15845;BMP180;50807;52.436;13.346;2023-12-20T02:31:31;100388.00;;;11.60
15845;BMP180;50807;52.436;13.346;2023-12-20T02:32:03;100389.00;;;11.60
15845;BMP180;50807;52.436;13.346;2023-12-20T02:32:34;100396.00;;;11.60
15845;BMP180;50807;52.436;13.346;2023-12-20T02:33:10;100391.00;;;11.60
15845;BMP180;50807;52.436;13.346;2023-12-20T02:33:42;100390.00;;;11.60
15845;BMP180;50807;52.436;13.346;2023-12-20T02:34:13;100390.00;;;11.60
15845;BMP180;50807;52.436;13.346;2023-12-20T02:34:46;100388.00;;;11.60
15845;BMP180;50807;52.436;13.346;2023-12-20T02:35:17;100393.00;;;11.60
15845;BMP180;50807;52.436;13.346;2023-12-20T02:35:48;100392.00;;;11.60
15845;BMP180;50807;52.436;13.346;2023-12-20T02:36:19;100389.00;;;11.60
15845;BMP180;50807;52.436;13.346;2023-12-20T02:36:51;100384.00;;;11.60
15845;BMP180;50807;52.436;13.346;2023-12-20T02:37:22;100392.00;;;11.60
15845;BMP180;50807;52.436;13.346;2023-12-20T02:37:53;100389.00;;;11.60
15845;BMP180;50807;52.436;13.346;2023-12-20T02:38:24;100387.00;;;11.60
15845;BMP180;50807;52.436;13.346;2023-12-20T02:38:55;100383.00;;;11.70
15845;BMP180;50807;52.436;13.346;2023-12-20T02:39:26;100389.00;;;11.70
15845;BMP180;50807;52.436;13.346;2023-12-20T02:39:57;100384.00;;;11.70
15845;BMP180;50807;52.436;13.346;2023-12-20T02:40:28;100389.00;;;11.70
15845;BMP180;50807;52.436;13.346;2023-12-20T02:40:59;100381.00;;;11.70
15845;BMP180;50807;52.436;13.346;2023-12-20T02:41:30;100381.00;;;11.70
15845;BMP180;50807;52.436;13.346;2023-12-20T02:42:01;100384.00;;;11.70
15845;BMP180;50807;52.436;13.346;2023-12-20T02:42:32;100389.00;;;11.70
15845;BMP180;50807;52.436;13.346;2023-12-20T02:43:03;100388.00;;;11.70
15845;BMP180;50807;52.436;13.346;2023-12-20T02:43:34;100380.00;;;11.70
15845;BMP180;50807;52.436;13.346;2023-12-20T02:44:05;100381.00;;;11.70
15845;BMP180;50807;52.436;13.346;2023-12-20T02:44:36;100381.00;;;11.70
15845;BMP180;50807;52.436;13.346;2023-12-20T02:45:08;100379.00;;;11.70
15845;BMP180;50807;52.436;13.346;2023-12-20T02:45:38;100378.00;;;11.70
15845;BMP180;50807;52.436;13.346;2023-12-20T02:46:09;100383.00;;;11.80
15845;BMP180;50807;52.436;13.346;2023-12-20T02:46:41;100392.00;;;11.80
15845;BMP180;50807;52.436;13.346;2023-12-20T02:47:12;100385.00;;;11.80
15845;BMP180;50807;52.436;13.346;2023-12-20T02:47:42;100388.00;;;11.80
15845;BMP180;50807;52.436;13.346;2023-12-20T02:48:13;100376.00;;;11.80
15845;BMP180;50807;52.436;13.346;2023-12-20T02:48:45;100383.00;;;11.80
15845;BMP180;50807;52.436;13.346;2023-12-20T02:49:15;100383.00;;;11.80
15845;BMP180;50807;52.436;13.346;2023-12-20T02:49:46;100390.00;;;11.80
15845;BMP180;50807;52.436;13.346;2023-12-20T02:50:17;100387.00;;;11.80
15845;BMP180;50807;52.436;13.346;2023-12-20T02:50:49;100392.00;;;11.80
15845;BMP180;50807;52.436;13.346;2023-12-20T02:51:20;100388.00;;;11.80
15845;BMP180;50807;52.436;13.346;2023-12-20T02:51:52;100388.00;;;11.80
15845;BMP180;50807;52.436;13.346;2023-12-20T02:52:23;100389.00;;;11.80
15845;BMP180;50807;52.436;13.346;2023-12-20T02:52:55;100393.00;;;11.90
15845;BMP180;50807;52.436;13.346;2023-12-20T02:53:26;100382.00;;;11.80
15845;BMP180;50807;52.436;13.346;2023-12-20T02:53:56;100389.00;;;11.90
15845;BMP180;50807;52.436;13.346;2023-12-20T02:54:27;100396.00;;;11.90
15845;BMP180;50807;52.436;13.346;2023-12-20T02:54:58;100392.00;;;11.90
15845;BMP180;50807;52.436;13.346;2023-12-20T02:55:29;100392.00;;;11.90